Terminal Aerodrome Forecast
Issued by NWS

Home | Current Version | Previous Version | Text Only | Print | Product List | Glossary Off
Versions: 1 2 3 4 5 6 7 8 9 10 11 12 13 14 15

000
FTUS42 KMHX 181100
TAFOAJ
TAF
KOAJ 181129Z 1812/1912 24005KT P6SM SKC
     FM181500 28009G15KT P6SM FEW040
     FM182200 32005KT P6SM SCT050
      AMD LTD TO CLD VIS AND WIND=

USA.gov is the U.S. government's official web portal to all federal, state and local government web resources and services.